Welcome to Northern Hawkes Bay. New Zealand.
PWS Header
      nz Flag



Hit Counter


W3C Valid W3C Valid logo


    Wairoa

Select any of the Stations below to visit their websites.










Historic Data from Weather Underground
Select the location of interest below. Wairoa is the default. Please have patience, this Data is slow to load in.
Northern Hawkes Bay Historical Data
Daily Summary for October 4, 2017 Units:  Metric    English   Both
« Previous Day
Next Day »
Daily Weekly Monthly Yearly Custom
  High: Low: Average:
Temperature: 24.2 °C 7.7 °C 14.7 °C
Dew Point: 15.2 °C 6.8 °C 10.4 °C
Humidity: 99% 37% 78%
Wind Speed: 13.4km/h 0.0km/h 4.3km/h
Wind Gust: 19.5km/h - -
Wind- - West
Pressure: 1019.9 hPa 1013.1 hPa -
Precipitation: 0.0 mm    
Historical Graphs
 
 
Tabular Data for October 4, 2017
Time Temperature Dew Point Pressure Wind Wind Speed Wind Gust Humidity Rainfall Rate (Hourly) solar
00:00 10.0 °C 9.8 °C 1019.9 hPa NW 3.5 km/h 5.0 km/h 99% 0.0 mm 0 W/m2
00:06 9.9 °C 9.8 °C 1019.9 hPa NW 2.6 km/h 6.1 km/h 99% 0.0 mm 0 W/m2
00:11 9.9 °C 9.8 °C 1019.5 hPa NW 5.0 km/h 6.1 km/h 99% 0.0 mm 0 W/m2
00:16 9.8 °C 9.7 °C 1019.9 hPa NNW 3.5 km/h 6.1 km/h 99% 0.0 mm 0 W/m2
00:21 9.8 °C 9.7 °C 1019.9 hPa NW 2.6 km/h 7.2 km/h 99% 0.0 mm 0 W/m2
00:26 9.8 °C 9.7 °C 1019.5 hPa NW 5.0 km/h 7.2 km/h 99% 0.0 mm 0 W/m2
00:31 9.8 °C 9.7 °C 1019.9 hPa NW 3.5 km/h 8.7 km/h 99% 0.0 mm 0 W/m2
00:36 9.7 °C 9.6 °C 1019.5 hPa NW 3.5 km/h 8.7 km/h 99% 0.0 mm 0 W/m2
00:41 9.7 °C 9.6 °C 1019.9 hPa NW 5.0 km/h 8.7 km/h 99% 0.0 mm 0 W/m2
00:46 9.7 °C 9.6 °C 1019.9 hPa NW 5.0 km/h 8.7 km/h 99% 0.0 mm 0 W/m2
00:51 9.6 °C 9.4 °C 1019.9 hPa NW 5.0 km/h 8.7 km/h 99% 0.0 mm 0 W/m2
00:56 9.6 °C 9.4 °C 1019.9 hPa NW 5.0 km/h 8.7 km/h 99% 0.0 mm 0 W/m2
01:01 9.5 °C 9.3 °C 1019.5 hPa NW 6.1 km/h 9.7 km/h 99% 0.0 mm 0 W/m2
01:06 9.4 °C 9.3 °C 1019.5 hPa NW 5.0 km/h 9.7 km/h 99% 0.0 mm 0 W/m2
01:11 9.4 °C 9.3 °C 1019.5 hPa NW 3.5 km/h 8.7 km/h 99% 0.0 mm 0 W/m2
01:16 9.3 °C 9.2 °C 1019.9 hPa NNW 2.6 km/h 7.2 km/h 99% 0.0 mm 0 W/m2
01:21 9.2 °C 9.1 °C 1019.9 hPa NNW 3.5 km/h 6.1 km/h 99% 0.0 mm 0 W/m2
01:26 9.3 °C 9.2 °C 1019.5 hPa NW 5.0 km/h 8.7 km/h 99% 0.0 mm 0 W/m2
01:31 9.3 °C 9.2 °C 1019.9 hPa NNW 6.1 km/h 8.7 km/h 99% 0.0 mm 0 W/m2
01:36 9.3 °C 9.2 °C 1019.5 hPa NNW 6.1 km/h 8.7 km/h 99% 0.0 mm 0 W/m2
01:41 9.2 °C 9.1 °C 1019.5 hPa NNW 5.0 km/h 8.7 km/h 99% 0.0 mm 0 W/m2
01:46 9.1 °C 8.9 °C 1019.5 hPa NW 5.0 km/h 8.7 km/h 99% 0.0 mm 0 W/m2
01:51 9.1 °C 8.9 °C 1019.5 hPa NW 5.0 km/h 8.7 km/h 99% 0.0 mm 0 W/m2
01:56 9.1 °C 8.9 °C 1019.5 hPa NW 3.5 km/h 9.7 km/h 99% 0.0 mm 0 W/m2
02:01 9.1 °C 8.9 °C 1019.5 hPa NW 5.0 km/h 9.7 km/h 99% 0.0 mm 0 W/m2
02:06 9.0 °C 8.8 °C 1019.5 hPa NW 6.1 km/h 9.7 km/h 99% 0.0 mm 0 W/m2
02:11 9.0 °C 8.8 °C 1019.5 hPa NW 6.1 km/h 9.7 km/h 99% 0.0 mm 0 W/m2
02:16 8.9 °C 8.8 °C 1019.5 hPa NW 5.0 km/h 8.7 km/h 99% 0.0 mm 0 W/m2
02:26 8.7 °C 8.6 °C 1019.5 hPa NNW 5.0 km/h 7.2 km/h 99% 0.0 mm 0 W/m2
02:31 8.9 °C 8.8 °C 1019.5 hPa NW 3.5 km/h 7.2 km/h 99% 0.0 mm 0 W/m2
02:36 8.9 °C 8.8 °C 1019.2 hPa NNW 2.6 km/h 7.2 km/h 99% 0.0 mm 0 W/m2
02:41 8.9 °C 8.8 °C 1019.2 hPa NNW 3.5 km/h 7.2 km/h 99% 0.0 mm 0 W/m2
02:46 8.9 °C 8.8 °C 1019.2 hPa NNW 2.6 km/h 6.1 km/h 99% 0.0 mm 0 W/m2
02:51 8.9 °C 8.8 °C 1019.5 hPa NNW 3.5 km/h 6.1 km/h 99% 0.0 mm 0 W/m2
02:56 8.9 °C 8.8 °C 1019.2 hPa NNW 5.0 km/h 6.1 km/h 99% 0.0 mm 0 W/m2
03:01 8.9 °C 8.8 °C 1019.2 hPa NNW 5.0 km/h 7.2 km/h 99% 0.0 mm 0 W/m2
03:06 8.8 °C 8.7 °C 1019.2 hPa NW 3.5 km/h 8.7 km/h 99% 0.0 mm 0 W/m2
03:11 8.6 °C 8.4 °C 1019.2 hPa NW 5.0 km/h 8.7 km/h 99% 0.0 mm 0 W/m2
03:16 8.6 °C 8.4 °C 1019.2 hPa NW 5.0 km/h 7.2 km/h 99% 0.0 mm 0 W/m2
03:21 8.5 °C 8.3 °C 1019.2 hPa NW 3.5 km/h 7.2 km/h 99% 0.0 mm 0 W/m2
03:26 8.4 °C 8.3 °C 1018.8 hPa NW 3.5 km/h 6.1 km/h 99% 0.0 mm 0 W/m2
03:31 8.4 °C 8.3 °C 1018.8 hPa NW 2.6 km/h 6.1 km/h 99% 0.0 mm 0 W/m2
03:36 8.4 °C 8.3 °C 1019.2 hPa NW 3.5 km/h 6.1 km/h 99% 0.0 mm 0 W/m2
03:41 8.3 °C 8.2 °C 1018.8 hPa NW 3.5 km/h 6.1 km/h 99% 0.0 mm 0 W/m2
03:46 8.2 °C 8.1 °C 1019.2 hPa NW 3.5 km/h 6.1 km/h 99% 0.0 mm 0 W/m2
03:51 8.2 °C 8.1 °C 1018.8 hPa NNW 3.5 km/h 8.7 km/h 99% 0.0 mm 0 W/m2
03:56 8.1 °C 7.9 °C 1018.8 hPa NNW 3.5 km/h 8.7 km/h 99% 0.0 mm 0 W/m2
04:01 8.1 °C 7.9 °C 1018.8 hPa NW 5.0 km/h 7.2 km/h 99% 0.0 mm 0 W/m2
04:06 8.1 °C 7.9 °C 1018.8 hPa NW 5.0 km/h 8.7 km/h 99% 0.0 mm 0 W/m2
04:11 8.0 °C 7.8 °C 1018.8 hPa NW 5.0 km/h 8.7 km/h 99% 0.0 mm 0 W/m2
04:16 7.9 °C 7.4 °C 1018.5 hPa NW 2.6 km/h 7.2 km/h 97% 0.0 mm 0 W/m2
04:21 8.0 °C 7.8 °C 1018.5 hPa NNW 3.5 km/h 7.2 km/h 99% 0.0 mm 0 W/m2
04:26 8.0 °C 7.8 °C 1018.8 hPa NW 5.0 km/h 7.2 km/h 99% 0.0 mm 0 W/m2
04:31 7.9 °C 7.4 °C 1018.8 hPa NW 3.5 km/h 6.1 km/h 97% 0.0 mm 0 W/m2
04:37 7.9 °C 7.4 °C 1018.5 hPa NNW 5.0 km/h 7.2 km/h 97% 0.0 mm 0 W/m2
04:45 8.0 °C 7.8 °C 1018.5 hPa NNW 6.1 km/h 8.7 km/h 99% 0.0 mm 0 W/m2
04:50 8.1 °C 7.9 °C 1018.5 hPa NNW 6.1 km/h 11.1 km/h 99% 0.0 mm 0 W/m2
04:55 8.2 °C 8.1 °C 1018.5 hPa NNW 5.0 km/h 11.1 km/h 99% 0.0 mm 0 W/m2
05:00 8.2 °C 8.1 °C 1018.5 hPa NNW 3.5 km/h 9.7 km/h 99% 0.0 mm 0 W/m2
05:05 8.2 °C 8.1 °C 1018.5 hPa NNW 5.0 km/h 9.7 km/h 99% 0.0 mm 0 W/m2
05:10 8.2 °C 8.1 °C 1018.5 hPa North 6.1 km/h 11.1 km/h 99% 0.0 mm 0 W/m2
05:15 8.3 °C 8.2 °C 1018.5 hPa North 7.2 km/h 12.2 km/h 99% 0.0 mm 0 W/m2
05:20 8.4 °C 8.3 °C 1018.5 hPa NNW 8.7 km/h 13.4 km/h 99% 0.0 mm 0 W/m2
05:25 8.4 °C 8.3 °C 1018.2 hPa NNW 8.7 km/h 13.4 km/h 99% 0.0 mm 0 W/m2
05:28 8.3 °C 8.2 °C 1018.2 hPa NNW 6.1 km/h 13.4 km/h 99% 0.0 mm 0 W/m2
05:33 8.3 °C 8.2 °C 1018.5 hPa NNW 8.7 km/h 13.4 km/h 99% 0.0 mm 0 W/m2
05:38 8.2 °C 8.1 °C 1018.5 hPa NNW 7.2 km/h 13.4 km/h 99% 0.0 mm 0 W/m2
05:43 8.1 °C 7.9 °C 1018.5 hPa NNW 8.7 km/h 13.4 km/h 99% 0.0 mm 0 W/m2
05:48 8.1 °C 7.9 °C 1018.5 hPa NNW 6.1 km/h 11.1 km/h 99% 0.0 mm 0 W/m2
05:53 8.0 °C 7.8 °C 1018.5 hPa NNW 7.2 km/h 12.2 km/h 99% 0.0 mm 0 W/m2
05:58 7.9 °C 7.4 °C 1018.5 hPa NNW 8.7 km/h 13.4 km/h 97% 0.0 mm 0 W/m2
06:03 7.9 °C 7.4 °C 1018.5 hPa NNW 6.1 km/h 13.4 km/h 97% 0.0 mm 0 W/m2
06:08 8.0 °C 7.8 °C 1018.5 hPa NNW 5.0 km/h 12.2 km/h 99% 0.0 mm 0 W/m2
06:13 8.0 °C 7.8 °C 1018.5 hPa NNW 5.0 km/h 11.1 km/h 99% 0.0 mm 0 W/m2
06:33 7.7 °C 7.3 °C 1018.5 hPa NNW 5.0 km/h 8.7 km/h 97% 0.0 mm 0 W/m2
06:38 7.7 °C 7.3 °C 1018.5 hPa NNW 5.0 km/h 9.7 km/h 97% 0.0 mm 0 W/m2
06:43 7.7 °C 7.3 °C 1018.2 hPa NNW 6.1 km/h 11.1 km/h 97% 0.0 mm 0 W/m2
06:48 7.8 °C 7.3 °C 1018.2 hPa NNW 8.7 km/h 13.4 km/h 97% 0.0 mm 3 W/m2
06:53 7.8 °C 7.3 °C 1018.2 hPa North 9.7 km/h 14.8 km/h 97% 0.0 mm 6 W/m2
06:58 7.9 °C 7.4 °C 1018.2 hPa North 7.2 km/h 14.8 km/h 97% 0.0 mm 9 W/m2
07:03 7.9 °C 7.4 °C 1018.2 hPa NNW 6.1 km/h 14.8 km/h 97% 0.0 mm 14 W/m2
07:08 8.1 °C 7.9 °C 1018.2 hPa NNW 6.1 km/h 13.4 km/h 99% 0.0 mm 44 W/m2
07:13 8.4 °C 8.3 °C 1018.2 hPa North 3.5 km/h 12.2 km/h 99% 0.0 mm 58 W/m2
07:18 8.8 °C 8.7 °C 1018.2 hPa NNW 3.5 km/h 12.2 km/h 99% 0.0 mm 73 W/m2
07:23 9.1 °C 8.9 °C 1018.2 hPa NW 6.1 km/h 8.7 km/h 99% 0.0 mm 87 W/m2
07:28 9.3 °C 9.2 °C 1018.2 hPa NNW 5.0 km/h 8.7 km/h 99% 0.0 mm 98 W/m2
07:33 9.4 °C 9.1 °C 1018.2 hPa NNW 6.1 km/h 9.7 km/h 98% 0.0 mm 109 W/m2
07:38 9.3 °C 8.7 °C 1018.2 hPa NNW 7.2 km/h 11.1 km/h 96% 0.0 mm 120 W/m2
07:43 9.3 °C 8.6 °C 1018.2 hPa NNW 7.2 km/h 15.8 km/h 95% 0.0 mm 131 W/m2
07:48 9.4 °C 8.7 °C 1018.2 hPa NW 11.1 km/h 15.8 km/h 95% 0.0 mm 142 W/m2
07:53 9.4 °C 8.7 °C 1018.2 hPa NW 8.7 km/h 14.8 km/h 95% 0.0 mm 150 W/m2
07:58 9.7 °C 8.9 °C 1018.2 hPa NW 9.7 km/h 14.8 km/h 95% 0.0 mm 159 W/m2
08:03 9.9 °C 9.0 °C 1018.2 hPa NW 7.2 km/h 14.8 km/h 94% 0.0 mm 167 W/m2
08:08 10.2 °C 9.1 °C 1018.2 hPa NW 6.1 km/h 14.8 km/h 93% 0.0 mm 173 W/m2
08:13 10.5 °C 9.3 °C 1018.2 hPa NW 6.1 km/h 12.2 km/h 92% 0.0 mm 178 W/m2
08:19 10.8 °C 9.4 °C 1018.2 hPa NW 7.2 km/h 11.1 km/h 91% 0.0 mm 183 W/m2
08:24 11.1 °C 9.2 °C 1018.5 hPa NW 7.2 km/h 13.4 km/h 88% 0.0 mm 195 W/m2
08:29 11.4 °C 9.3 °C 1018.2 hPa NNW 7.2 km/h 14.8 km/h 87% 0.0 mm 206 W/m2
08:34 11.7 °C 9.4 °C 1018.2 hPa NNW 7.2 km/h 14.8 km/h 86% 0.0 mm 214 W/m2
08:39 12.0 °C 9.4 °C 1018.2 hPa NNW 5.0 km/h 11.1 km/h 84% 0.0 mm 214 W/m2
08:44 12.2 °C 9.4 °C 1018.5 hPa NNW 6.1 km/h 15.8 km/h 83% 0.0 mm 215 W/m2
08:49 12.4 °C 9.4 °C 1018.2 hPa NNW 11.1 km/h 19.5 km/h 82% 0.0 mm 216 W/m2
08:54 12.4 °C 9.2 °C 1018.5 hPa NNW 8.7 km/h 19.5 km/h 81% 0.0 mm 221 W/m2
08:59 12.6 °C 9.4 °C 1018.5 hPa NNW 7.2 km/h 15.8 km/h 81% 0.0 mm 229 W/m2
09:04 13.1 °C 9.6 °C 1018.5 hPa NW 9.7 km/h 15.8 km/h 79% 0.0 mm 239 W/m2
09:09 13.2 °C 9.7 °C 1018.5 hPa NW 8.7 km/h 14.8 km/h 79% 0.0 mm 248 W/m2
09:14 13.7 °C 10.3 °C 1018.5 hPa NNW 3.5 km/h 13.4 km/h 80% 0.0 mm 259 W/m2
09:19 14.1 °C 10.1 °C 1018.2 hPa NNW 3.5 km/h 12.2 km/h 77% 0.0 mm 268 W/m2
09:24 14.6 °C 10.2 °C 1018.5 hPa NNW 6.1 km/h 11.1 km/h 75% 0.0 mm 278 W/m2
09:44 15.3 °C 10.5 °C 1018.2 hPa NNW 5.0 km/h 13.4 km/h 73% 0.0 mm 316 W/m2
09:49 15.7 °C 10.9 °C 1018.2 hPa NNW 6.1 km/h 13.4 km/h 73% 0.0 mm 325 W/m2
09:54 15.9 °C 11.1 °C 1018.2 hPa NNW 7.2 km/h 12.2 km/h 73% 0.0 mm 336 W/m2
09:59 16.2 °C 10.7 °C 1018.2 hPa NW 8.7 km/h 13.4 km/h 70% 0.0 mm 342 W/m2
10:05 16.1 °C 10.6 °C 1018.2 hPa NW 8.7 km/h 14.8 km/h 70% 0.0 mm 205 W/m2
10:10 16.4 °C 10.9 °C 1018.2 hPa NNW 6.1 km/h 14.8 km/h 70% 0.0 mm 83 W/m2
10:15 16.7 °C 11.2 °C 1018.2 hPa NNW 5.0 km/h 13.4 km/h 70% 0.0 mm 367 W/m2
10:20 16.8 °C 10.9 °C 1018.2 hPa NW 9.7 km/h 13.4 km/h 68% 0.0 mm 77 W/m2
10:25 17.2 °C 11.3 °C 1017.8 hPa NNW 5.0 km/h 13.4 km/h 68% 0.0 mm 99 W/m2
10:30 17.7 °C 11.3 °C 1017.8 hPa North 5.0 km/h 12.2 km/h 66% 0.0 mm 77 W/m2
10:35 17.9 °C 11.2 °C 1017.8 hPa North 7.2 km/h 13.4 km/h 65% 0.0 mm 98 W/m2
10:40 18.2 °C 11.8 °C 1017.8 hPa North 7.2 km/h 13.4 km/h 66% 0.0 mm 97 W/m2
10:45 18.5 °C 11.8 °C 1017.8 hPa North 7.2 km/h 12.2 km/h 65% 0.0 mm 365 W/m2
10:50 18.7 °C 11.5 °C 1017.8 hPa NNW 9.7 km/h 13.4 km/h 63% 0.0 mm 149 W/m2
10:55 19.0 °C 10.6 °C 1017.8 hPa NNW 8.7 km/h 13.4 km/h 58% 0.0 mm 290 W/m2
11:00 19.3 °C 10.8 °C 1017.5 hPa NNW 6.1 km/h 13.4 km/h 58% 0.0 mm 452 W/m2
11:05 19.4 °C 10.1 °C 1017.5 hPa NNW 7.2 km/h 13.4 km/h 55% 0.0 mm 483 W/m2
11:10 19.5 °C 10.8 °C 1017.5 hPa NNW 5.0 km/h 13.4 km/h 57% 0.0 mm 492 W/m2
11:15 19.6 °C 10.3 °C 1017.5 hPa NNW 11.1 km/h 14.8 km/h 55% 0.0 mm 495 W/m2
11:20 19.7 °C 10.4 °C 1017.5 hPa North 3.5 km/h 14.8 km/h 55% 0.0 mm 513 W/m2
11:25 19.9 °C 10.6 °C 1017.5 hPa North 7.2 km/h 14.8 km/h 55% 0.0 mm 526 W/m2
11:30 20.0 °C 10.2 °C 1017.2 hPa North 5.0 km/h 13.4 km/h 53% 0.0 mm 539 W/m2
11:35 20.6 °C 10.7 °C 1017.2 hPa North 9.7 km/h 15.8 km/h 53% 0.0 mm 551 W/m2
11:40 20.2 °C 9.4 °C 1017.2 hPa NNW 3.5 km/h 15.8 km/h 50% 0.0 mm 561 W/m2
11:45 20.5 °C 10.1 °C 1017.2 hPa NNW 6.1 km/h 14.8 km/h 51% 0.0 mm 544 W/m2
11:50 21.0 °C 10.8 °C 1016.8 hPa North 2.6 km/h 11.1 km/h 52% 0.0 mm 511 W/m2
11:55 21.3 °C 9.8 °C 1016.8 hPa NNW 2.6 km/h 12.2 km/h 48% 0.0 mm 213 W/m2
12:00 21.1 °C 8.4 °C 1016.8 hPa NNW 6.1 km/h 15.8 km/h 44% 0.0 mm 592 W/m2
12:05 21.4 °C 9.9 °C 1016.8 hPa North 3.5 km/h 15.8 km/h 48% 0.0 mm 599 W/m2
12:10 21.3 °C 10.2 °C 1016.8 hPa North 6.1 km/h 13.4 km/h 49% 0.0 mm 612 W/m2
12:15 21.4 °C 8.7 °C 1016.5 hPa North 7.2 km/h 14.8 km/h 44% 0.0 mm 615 W/m2
12:20 21.7 °C 9.3 °C 1016.5 hPa North 5.0 km/h 14.8 km/h 45% 0.0 mm 624 W/m2
12:25 21.9 °C 9.1 °C 1016.5 hPa North 8.7 km/h 14.8 km/h 44% 0.0 mm 634 W/m2
12:30 22.0 °C 8.5 °C 1016.5 hPa NNE 2.6 km/h 12.2 km/h 42% 0.0 mm 642 W/m2
12:35 22.2 °C 8.3 °C 1016.5 hPa Calm   12.2 km/h 41% 0.0 mm 653 W/m2
12:40 22.2 °C 6.8 °C 1016.5 hPa NW 5.0 km/h 13.4 km/h 37% 0.0 mm 660 W/m2
12:45 21.8 °C 7.2 °C 1016.1 hPa NW 3.5 km/h 13.4 km/h 39% 0.0 mm 660 W/m2
12:51 22.0 °C 11.4 °C 1016.1 hPa WNW 8.7 km/h 13.4 km/h 51% 0.0 mm 668 W/m2
12:56 20.6 °C 12.1 °C 1016.1 hPa SW 7.2 km/h 15.8 km/h 58% 0.0 mm 659 W/m2
13:01 20.3 °C 12.6 °C 1016.1 hPa SW 7.2 km/h 15.8 km/h 61% 0.0 mm 660 W/m2
13:06 20.5 °C 12.7 °C 1016.1 hPa SW 8.7 km/h 12.2 km/h 61% 0.0 mm 664 W/m2
13:11 20.3 °C 11.5 °C 1016.1 hPa SW 9.7 km/h 12.2 km/h 57% 0.0 mm 669 W/m2
13:16 20.7 °C 10.8 °C 1016.1 hPa SW 8.7 km/h 13.4 km/h 53% 0.0 mm 669 W/m2
13:21 21.2 °C 11.3 °C 1016.1 hPa SSW 7.2 km/h 14.8 km/h 53% 0.0 mm 673 W/m2
13:26 20.8 °C 11.4 °C 1016.1 hPa South 12.2 km/h 15.8 km/h 55% 0.0 mm 672 W/m2
13:31 20.1 °C 13.3 °C 1015.8 hPa South 13.4 km/h 17.2 km/h 65% 0.0 mm 668 W/m2
13:36 19.4 °C 14.4 °C 1016.1 hPa South 11.1 km/h 17.2 km/h 73% 0.0 mm 668 W/m2
13:41 19.0 °C 14.3 °C 1016.1 hPa SSW 11.1 km/h 17.2 km/h 74% 0.0 mm 666 W/m2
13:46 18.8 °C 14.5 °C 1016.1 hPa SSW 8.7 km/h 17.2 km/h 76% 0.0 mm 663 W/m2
13:51 19.2 °C 14.3 °C 1016.1 hPa South 7.2 km/h 15.8 km/h 73% 0.0 mm 660 W/m2
13:56 19.1 °C 13.5 °C 1015.8 hPa SSW 9.7 km/h 15.8 km/h 70% 0.0 mm 576 W/m2
14:01 19.2 °C 12.5 °C 1015.8 hPa South 11.1 km/h 14.8 km/h 65% 0.0 mm 523 W/m2
14:07 19.5 °C 12.3 °C 1015.8 hPa South 8.7 km/h 14.8 km/h 63% 0.0 mm 631 W/m2
14:12 20.1 °C 12.1 °C 1015.5 hPa South 7.2 km/h 13.4 km/h 60% 0.0 mm 645 W/m2
14:15 20.1 °C 11.6 °C 1015.5 hPa Calm   13.4 km/h 58% 0.0 mm 640 W/m2
14:20 20.8 °C 12.0 °C 1015.5 hPa SSE 7.2 km/h 13.4 km/h 57% 0.0 mm 483 W/m2
14:25 20.3 °C 11.2 °C 1015.5 hPa SSE 3.5 km/h 15.8 km/h 56% 0.0 mm 624 W/m2
14:30 20.5 °C 11.2 °C 1015.5 hPa SSE 3.5 km/h 15.8 km/h 55% 0.0 mm 614 W/m2
14:35 20.6 °C 11.3 °C 1015.5 hPa SSE 6.1 km/h 12.2 km/h 55% 0.0 mm 609 W/m2
14:40 21.3 °C 11.1 °C 1015.1 hPa SSE 8.7 km/h 12.2 km/h 52% 0.0 mm 599 W/m2
14:45 21.2 °C 10.9 °C 1015.1 hPa SSE 3.5 km/h 11.1 km/h 52% 0.0 mm 587 W/m2
14:50 21.2 °C 10.9 °C 1015.1 hPa SSE 5.0 km/h 11.1 km/h 52% 0.0 mm 572 W/m2
14:55 21.3 °C 10.8 °C 1014.8 hPa SSE 5.0 km/h 11.1 km/h 51% 0.0 mm 557 W/m2
15:00 21.7 °C 11.1 °C 1014.8 hPa SE 1.1 km/h 9.7 km/h 51% 0.0 mm 540 W/m2
15:05 21.7 °C 10.8 °C 1014.8 hPa SSE 6.1 km/h 9.7 km/h 50% 0.0 mm 504 W/m2
15:15 22.2 °C 11.6 °C 1014.4 hPa SSE 3.5 km/h 8.7 km/h 51% 0.0 mm 364 W/m2
15:20 22.6 °C 11.7 °C 1014.4 hPa Calm   8.7 km/h 50% 0.0 mm 410 W/m2
15:25 22.4 °C 11.2 °C 1014.4 hPa SE 3.5 km/h 8.7 km/h 49% 0.0 mm 309 W/m2
15:30 22.5 °C 11.6 °C 1014.4 hPa SSE 8.7 km/h 13.4 km/h 50% 0.0 mm 450 W/m2
15:35 22.0 °C 11.4 °C 1014.4 hPa South 6.1 km/h 13.4 km/h 51% 0.0 mm 467 W/m2
15:40 22.1 °C 11.5 °C 1014.1 hPa SSE 3.5 km/h 13.4 km/h 51% 0.0 mm 455 W/m2
15:45 22.2 °C 11.0 °C 1013.8 hPa SSE 5.0 km/h 11.1 km/h 49% 0.0 mm 441 W/m2
15:50 22.5 °C 12.2 °C 1013.8 hPa SSE 1.1 km/h 11.1 km/h 52% 0.0 mm 293 W/m2
15:55 23.1 °C 11.5 °C 1013.8 hPa SSE 3.5 km/h 11.1 km/h 48% 0.0 mm 168 W/m2
16:00 22.7 °C 12.1 °C 1013.8 hPa South 7.2 km/h 11.1 km/h 51% 0.0 mm 406 W/m2
16:05 22.3 °C 11.7 °C 1013.4 hPa South 2.6 km/h 11.1 km/h 51% 0.0 mm 392 W/m2
16:11 22.6 °C 11.7 °C 1013.4 hPa South 1.1 km/h 11.1 km/h 50% 0.0 mm 380 W/m2
16:16 23.5 °C 11.9 °C 1013.4 hPa SSE 3.5 km/h 11.1 km/h 48% 0.0 mm 329 W/m2
16:21 23.8 °C 12.4 °C 1013.4 hPa ESE 1.1 km/h 7.2 km/h 49% 0.0 mm 352 W/m2
16:26 24.0 °C 12.3 °C 1013.4 hPa ESE 1.1 km/h 8.7 km/h 48% 0.0 mm 340 W/m2
16:31 24.2 °C 12.2 °C 1013.4 hPa SSE 6.1 km/h 9.7 km/h 47% 0.0 mm 330 W/m2
16:36 24.0 °C 12.0 °C 1013.4 hPa Calm   9.7 km/h 47% 0.0 mm 318 W/m2
16:41 23.9 °C 12.6 °C 1013.4 hPa SSE 6.1 km/h 9.7 km/h 49% 0.0 mm 307 W/m2
16:46 23.5 °C 13.4 °C 1013.1 hPa South 2.6 km/h 9.7 km/h 53% 0.0 mm 291 W/m2
16:56 22.9 °C 13.1 °C 1013.4 hPa South 3.5 km/h 9.7 km/h 54% 0.0 mm 264 W/m2
17:01 23.1 °C 13.3 °C 1013.4 hPa South 2.6 km/h 7.2 km/h 54% 0.0 mm 251 W/m2
17:06 23.9 °C 13.8 °C 1013.1 hPa SSE 2.6 km/h 7.2 km/h 53% 0.0 mm 240 W/m2
17:11 23.3 °C 13.2 °C 1013.1 hPa SSE 5.0 km/h 8.7 km/h 53% 0.0 mm 228 W/m2
17:16 23.5 °C 13.9 °C 1013.1 hPa South 2.6 km/h 8.7 km/h 55% 0.0 mm 184 W/m2
17:21 23.0 °C 13.5 °C 1013.1 hPa Calm   6.1 km/h 55% 0.0 mm 176 W/m2
17:26 24.1 °C 14.5 °C 1013.1 hPa SSE 2.6 km/h 6.1 km/h 55% 0.0 mm 191 W/m2
17:31 23.7 °C 13.8 °C 1013.1 hPa South 5.0 km/h 8.7 km/h 54% 0.0 mm 170 W/m2
17:36 23.4 °C 14.7 °C 1013.1 hPa Calm   8.7 km/h 58% 0.0 mm 167 W/m2
17:41 24.0 °C 14.4 °C 1013.1 hPa South 5.0 km/h 7.2 km/h 55% 0.0 mm 130 W/m2
17:46 22.8 °C 14.7 °C 1013.4 hPa SW 3.5 km/h 8.7 km/h 60% 0.0 mm 135 W/m2
17:51 22.1 °C 14.2 °C 1013.4 hPa SW 7.2 km/h 11.1 km/h 61% 0.0 mm 127 W/m2
17:56 20.7 °C 14.6 °C 1013.4 hPa SW 3.5 km/h 11.1 km/h 68% 0.0 mm 72 W/m2
18:01 19.9 °C 15.2 °C 1013.4 hPa SW 8.7 km/h 11.1 km/h 74% 0.0 mm 52 W/m2
18:06 18.8 °C 15.1 °C 1013.4 hPa SW 5.0 km/h 11.1 km/h 79% 0.0 mm 40 W/m2
18:11 18.3 °C 15.0 °C 1013.4 hPa SSW 1.1 km/h 11.1 km/h 81% 0.0 mm 33 W/m2
18:16 17.9 °C 14.8 °C 1013.4 hPa SSW 2.6 km/h 9.7 km/h 82% 0.0 mm 34 W/m2
18:21 17.8 °C 14.9 °C 1013.4 hPa SSW 1.1 km/h 8.7 km/h 83% 0.0 mm 36 W/m2
18:26 17.8 °C 14.9 °C 1013.8 hPa SSW 3.5 km/h 6.1 km/h 83% 0.0 mm 31 W/m2
18:31 17.5 °C 14.6 °C 1013.4 hPa SSW 8.7 km/h 12.2 km/h 83% 0.0 mm 35 W/m2
18:36 17.3 °C 14.6 °C 1013.8 hPa SSW 1.1 km/h 12.2 km/h 84% 0.0 mm 31 W/m2
18:41 17.0 °C 14.3 °C 1013.8 hPa SW 3.5 km/h 11.1 km/h 84% 0.0 mm 27 W/m2
18:46 17.0 °C 14.4 °C 1013.8 hPa SW 1.1 km/h 7.2 km/h 85% 0.0 mm 23 W/m2
18:51 16.8 °C 14.3 °C 1013.8 hPa Calm   7.2 km/h 85% 0.0 mm 20 W/m2
18:56 16.6 °C 14.1 °C 1013.8 hPa Calm   5.0 km/h 85% 0.0 mm 16 W/m2
19:01 16.6 °C 13.9 °C 1013.8 hPa Calm     84% 0.0 mm 11 W/m2
19:06 16.6 °C 13.9 °C 1013.8 hPa Calm   2.6 km/h 84% 0.0 mm 6 W/m2
19:11 16.6 °C 13.9 °C 1014.1 hPa Calm   2.6 km/h 84% 0.0 mm 3 W/m2
19:21 16.3 °C 13.6 °C 1013.8 hPa Calm   3.5 km/h 84% 0.0 mm 0 W/m2
19:26 16.1 °C 13.6 °C 1013.8 hPa Calm     85% 0.0 mm 0 W/m2
19:31 16.0 °C 13.5 °C 1013.8 hPa Calm     85% 0.0 mm 0 W/m2
19:36 15.9 °C 13.6 °C 1014.1 hPa Calm   1.1 km/h 86% 0.0 mm 0 W/m2
19:41 15.7 °C 13.2 °C 1014.1 hPa Calm   2.6 km/h 85% 0.0 mm 0 W/m2
19:46 15.5 °C 12.8 °C 1014.1 hPa Calm   2.6 km/h 84% 0.0 mm 0 W/m2
19:51 15.4 °C 12.7 °C 1014.1 hPa Calm     84% 0.0 mm 0 W/m2
19:56 15.3 °C 12.6 °C 1014.1 hPa Calm   2.6 km/h 84% 0.0 mm 0 W/m2
20:01 15.3 °C 12.4 °C 1014.1 hPa Calm   2.6 km/h 83% 0.0 mm 0 W/m2
20:06 15.3 °C 12.4 °C 1014.1 hPa Calm   2.6 km/h 83% 0.0 mm 0 W/m2
20:11 15.3 °C 11.5 °C 1014.1 hPa Calm     78% 0.0 mm 0 W/m2
20:16 15.2 °C 11.2 °C 1014.1 hPa Calm     77% 0.0 mm 0 W/m2
20:21 15.1 °C 11.1 °C 1014.4 hPa Calm     77% 0.0 mm 0 W/m2
20:26 15.0 °C 11.0 °C 1014.4 hPa Calm     77% 0.0 mm 0 W/m2
20:31 14.8 °C 11.2 °C 1014.4 hPa Calm     79% 0.0 mm 0 W/m2
20:36 14.6 °C 11.0 °C 1014.4 hPa Calm     79% 0.0 mm 0 W/m2
20:41 14.5 °C 10.7 °C 1014.4 hPa Calm     78% 0.0 mm 0 W/m2
20:46 14.5 °C 10.5 °C 1014.4 hPa Calm     77% 0.0 mm 0 W/m2
20:51 14.4 °C 10.6 °C 1014.4 hPa Calm     78% 0.0 mm 0 W/m2
20:56 14.3 °C 10.5 °C 1014.4 hPa Calm     78% 0.0 mm 0 W/m2
21:01 14.3 °C 10.5 °C 1014.8 hPa Calm     78% 0.0 mm 0 W/m2
21:06 14.2 °C 10.4 °C 1014.8 hPa Calm     78% 0.0 mm 0 W/m2
21:11 14.0 °C 10.2 °C 1014.8 hPa Calm     78% 0.0 mm 0 W/m2
21:16 14.0 °C 10.1 °C 1014.8 hPa Calm     77% 0.0 mm 0 W/m2
21:21 14.2 °C 10.1 °C 1014.8 hPa Calm     76% 0.0 mm 0 W/m2
21:26 14.1 °C 9.9 °C 1014.8 hPa Calm     76% 0.0 mm 0 W/m2
21:31 14.0 °C 10.1 °C 1014.8 hPa Calm     77% 0.0 mm 0 W/m2
21:36 13.9 °C 10.3 °C 1014.8 hPa Calm     79% 0.0 mm 0 W/m2
21:54 13.6 °C 9.8 °C 1014.8 hPa Calm     78% 0.0 mm 0 W/m2
21:59 13.5 °C 9.7 °C 1014.8 hPa Calm     78% 0.0 mm 0 W/m2
22:04 13.2 °C 9.7 °C 1014.8 hPa Calm     79% 0.0 mm 0 W/m2
22:09 13.0 °C 9.6 °C 1014.8 hPa Calm     80% 0.0 mm 0 W/m2
22:14 12.8 °C 9.6 °C 1014.8 hPa Calm     81% 0.0 mm 0 W/m2
22:19 12.7 °C 9.5 °C 1014.8 hPa Calm     81% 0.0 mm 0 W/m2
22:24 12.3 °C 9.1 °C 1014.8 hPa Calm     81% 0.0 mm 0 W/m2
22:29 12.1 °C 9.1 °C 1015.1 hPa Calm     82% 0.0 mm 0 W/m2
22:34 12.1 °C 9.1 °C 1014.8 hPa Calm     82% 0.0 mm 0 W/m2
22:39 12.1 °C 9.3 °C 1014.8 hPa Calm     83% 0.0 mm 0 W/m2
22:44 12.2 °C 9.6 °C 1014.8 hPa Calm     84% 0.0 mm 0 W/m2
22:49 12.1 °C 9.5 °C 1014.8 hPa Calm     84% 0.0 mm 0 W/m2
22:55 12.2 °C 9.6 °C 1015.1 hPa Calm     84% 0.0 mm 0 W/m2
23:00 12.3 °C 9.7 °C 1014.8 hPa Calm     84% 0.0 mm 0 W/m2
23:05 12.5 °C 9.7 °C 1014.8 hPa Calm     83% 0.0 mm 0 W/m2
23:10 12.5 °C 9.7 °C 1014.8 hPa Calm     83% 0.0 mm 0 W/m2
23:15 12.5 °C 9.5 °C 1015.1 hPa Calm     82% 0.0 mm 0 W/m2
23:20 12.4 °C 9.4 °C 1015.1 hPa Calm     82% 0.0 mm 0 W/m2
23:25 12.1 °C 9.1 °C 1015.1 hPa Calm     82% 0.0 mm 0 W/m2
23:30 12.0 °C 9.2 °C 1015.1 hPa Calm     83% 0.0 mm 0 W/m2
23:35 11.9 °C 9.3 °C 1015.1 hPa Calm     84% 0.0 mm 0 W/m2
23:40 11.8 °C 9.2 °C 1015.1 hPa Calm     84% 0.0 mm 0 W/m2
23:45 11.8 °C 9.2 °C 1015.1 hPa Calm     84% 0.0 mm 0 W/m2
23:50 11.5 °C 8.9 °C 1015.1 hPa Calm     84% 0.0 mm 0 W/m2
23:55 11.2 °C 8.6 °C 1015.5 hPa Calm     84% 0.0 mm 0 W/m2
Northern Hawkes Bay. New Zealand Historic Data
Compliments of Weather Underground - 2.25 mb